Time;durP1;ratioP1;P1;durP2;ratioP2;P2;SDS_P1;SDS_P2;PMS_P1;PMS_P2;Temp;Humidity;BMP_temperature;BMP_pressure;BME280_temperature;BME280_humidity;BME280_pressure;Samples;Min_cycle;Max_cycle;Signal;HPM_P1;HPM_P2
2023/10/22 00:00:07;;;;;;;0.10;0.10;;;;;;;;;;5091791;28;20048;-76
2023/10/22 00:02:35;;;;;;;0.10;0.10;;;;;;;;;;5090879;28;20063;-78
2023/10/22 00:05:02;;;;;;;0.10;0.10;;;;;;;;;;5085802;28;20059;-77
2023/10/22 00:07:29;;;;;;;0.10;0.10;;;;;;;;;;5079884;28;20151;-77
2023/10/22 00:09:55;;;;;;;0.10;0.10;;;;;;;;;;5089559;28;20052;-78
2023/10/22 00:12:22;;;;;;;0.10;0.10;;;;;;;;;;5089062;28;22348;-77
2023/10/22 00:14:48;;;;;;;0.10;0.10;;;;;;;;;;5085280;28;20075;-77
2023/10/22 00:17:15;;;;;;;0.10;0.10;;;;;;;;;;5088757;28;20057;-79
2023/10/22 00:19:41;;;;;;;0.10;0.10;;;;;;;;;;5090200;28;20048;-79
2023/10/22 00:22:09;;;;;;;0.22;0.22;;;;;;;;;;5093157;28;20064;-78
2023/10/22 00:24:35;;;;;;;0.10;0.10;;;;;;;;;;5084915;28;20053;-77
2023/10/22 00:27:02;;;;;;;0.10;0.10;;;;;;;;;;5089796;28;20052;-79
2023/10/22 00:29:28;;;;;;;0.10;0.10;;;;;;;;;;5092486;28;20519;-79
2023/10/22 00:31:55;;;;;;;0.10;0.10;;;;;;;;;;5091430;28;20768;-77
2023/10/22 00:34:21;;;;;;;0.10;0.10;;;;;;;;;;5088047;28;20056;-78
2023/10/22 00:36:48;;;;;;;0.10;0.10;;;;;;;;;;5089364;28;20052;-78
2023/10/22 00:39:14;;;;;;;0.10;0.10;;;;;;;;;;5088025;28;20057;-79
2023/10/22 00:41:41;;;;;;;0.10;0.10;;;;;;;;;;5090898;28;20060;-78
2023/10/22 00:44:07;;;;;;;0.10;0.10;;;;;;;;;;5090722;28;20051;-76
2023/10/22 00:46:33;;;;;;;0.10;0.10;;;;;;;;;;5085166;28;20103;-78
2023/10/22 00:49:00;;;;;;;0.10;0.10;;;;;;;;;;5090125;28;20052;-77
2023/10/22 00:51:27;;;;;;;0.10;0.10;;;;;;;;;;5091263;28;20550;-78
2023/10/22 00:53:53;;;;;;;0.10;0.10;;;;;;;;;;5088627;28;20426;-78
2023/10/22 00:56:22;;;;;;;0.17;0.17;;;;;;;;;;5088971;28;20116;-79
2023/10/22 00:58:48;;;;;;;0.10;0.10;;;;;;;;;;5088570;28;20136;-79
2023/10/22 01:01:16;;;;;;;0.10;0.10;;;;;;;;;;5085448;28;20057;-77
2023/10/22 01:03:42;;;;;;;0.10;0.10;;;;;;;;;;5078389;28;20061;-79
2023/10/22 01:06:09;;;;;;;0.10;0.10;;;;;;;;;;5084738;28;20167;-78
2023/10/22 01:08:36;;;;;;;0.10;0.10;;;;;;;;;;5086847;28;20052;-78
2023/10/22 01:11:03;;;;;;;0.13;0.13;;;;;;;;;;5090120;28;20055;-79
2023/10/22 01:13:30;;;;;;;0.10;0.10;;;;;;;;;;5090789;28;20052;-79
2023/10/22 01:15:56;;;;;;;0.10;0.10;;;;;;;;;;5086098;28;20793;-78
2023/10/22 01:18:23;;;;;;;0.10;0.10;;;;;;;;;;5086463;28;20078;-78
2023/10/22 01:20:50;;;;;;;0.10;0.10;;;;;;;;;;5086234;28;20490;-78
2023/10/22 01:23:16;;;;;;;0.10;0.10;;;;;;;;;;5083060;28;20057;-77
2023/10/22 01:25:43;;;;;;;0.10;0.10;;;;;;;;;;5078393;28;20559;-77
2023/10/22 01:28:09;;;;;;;0.10;0.10;;;;;;;;;;5084698;28;20521;-78
2023/10/22 01:30:36;;;;;;;0.10;0.10;;;;;;;;;;5079006;28;20573;-77
2023/10/22 01:33:04;;;;;;;0.10;0.10;;;;;;;;;;5081717;28;20114;-77
2023/10/22 01:35:31;;;;;;;0.10;0.10;;;;;;;;;;5082786;28;20048;-78
2023/10/22 01:37:58;;;;;;;0.10;0.10;;;;;;;;;;5166443;22;20052;-79
2023/10/22 01:40:25;;;;;;;0.10;0.10;;;;;;;;;;5123166;27;20059;-78
2023/10/22 01:42:51;;;;;;;0.10;0.10;;;;;;;;;;5105526;28;20083;-77
2023/10/22 01:45:19;;;;;;;0.10;0.10;;;;;;;;;;5097007;28;20052;-77
2023/10/22 01:47:45;;;;;;;0.25;0.25;;;;;;;;;;5102886;28;20059;-78
2023/10/22 01:50:13;;;;;;;0.10;0.10;;;;;;;;;;5107315;28;20088;-78
2023/10/22 01:52:39;;;;;;;2.80;0.40;;;;;;;;;;5115693;27;20059;-77
2023/10/22 01:55:06;;;;;;;0.10;0.10;;;;;;;;;;5096876;28;20083;-77
2023/10/22 01:57:33;;;;;;;0.10;0.10;;;;;;;;;;5104144;27;20666;-77
2023/10/22 01:59:59;;;;;;;0.10;0.10;;;;;;;;;;5110285;27;20060;-78
2023/10/22 02:02:26;;;;;;;0.10;0.10;;;;;;;;;;5123998;27;20101;-77
2023/10/22 02:04:52;;;;;;;0.52;0.52;;;;;;;;;;5104254;28;20574;-77
2023/10/22 02:07:19;;;;;;;0.10;0.10;;;;;;;;;;5105285;28;20098;-77
2023/10/22 02:09:45;;;;;;;0.10;0.10;;;;;;;;;;5107352;28;20088;-79
2023/10/22 02:12:11;;;;;;;0.20;0.20;;;;;;;;;;5127235;27;20581;-79
2023/10/22 02:14:38;;;;;;;0.10;0.10;;;;;;;;;;5125168;27;20063;-79
2023/10/22 02:17:05;;;;;;;0.10;0.10;;;;;;;;;;5100324;27;20098;-78
2023/10/22 02:19:31;;;;;;;0.10;0.10;;;;;;;;;;5123598;27;20063;-78
2023/10/22 02:21:58;;;;;;;0.10;0.10;;;;;;;;;;5109584;27;20067;-78
2023/10/22 02:24:25;;;;;;;0.10;0.10;;;;;;;;;;5104150;28;20429;-78
2023/10/22 02:26:52;;;;;;;0.10;0.10;;;;;;;;;;5100826;28;20141;-77
2023/10/22 02:29:19;;;;;;;0.10;0.10;;;;;;;;;;5100892;28;20048;-79
2023/10/22 02:31:45;;;;;;;0.10;0.10;;;;;;;;;;5102955;28;20051;-79
2023/10/22 02:34:12;;;;;;;0.10;0.10;;;;;;;;;;5112089;28;20056;-80
2023/10/22 02:36:38;;;;;;;0.10;0.10;;;;;;;;;;5107285;27;20033;-78
2023/10/22 02:39:07;;;;;;;0.10;0.10;;;;;;;;;;5124853;27;20106;-79
2023/10/22 02:41:34;;;;;;;0.10;0.10;;;;;;;;;;5102433;28;20056;-79
2023/10/22 02:44:00;;;;;;;0.10;0.10;;;;;;;;;;5110387;28;20080;-79
2023/10/22 02:46:27;;;;;;;0.10;0.10;;;;;;;;;;5108203;28;20058;-79
2023/10/22 02:48:53;;;;;;;0.10;0.10;;;;;;;;;;5119845;27;20510;-79
2023/10/22 02:51:22;;;;;;;0.20;0.20;;;;;;;;;;5115880;27;20060;-81
2023/10/22 02:53:48;;;;;;;0.10;0.10;;;;;;;;;;5106503;28;20060;-79
2023/10/22 02:56:15;;;;;;;0.10;0.10;;;;;;;;;;5110465;28;20059;-80
2023/10/22 02:58:42;;;;;;;0.10;0.10;;;;;;;;;;5107790;28;20055;-79
2023/10/22 03:01:09;;;;;;;0.10;0.10;;;;;;;;;;5108472;27;20080;-79
2023/10/22 03:03:39;;;;;;;0.10;0.10;;;;;;;;;;5108656;27;20072;-80
2023/10/22 03:06:07;;;;;;;0.10;0.10;;;;;;;;;;5117011;27;20932;-79
2023/10/22 03:08:34;;;;;;;0.10;0.10;;;;;;;;;;5111072;27;20059;-81
2023/10/22 03:11:01;;;;;;;0.10;0.10;;;;;;;;;;5109031;28;20086;-81
2023/10/22 03:13:27;;;;;;;0.10;0.10;;;;;;;;;;5104787;28;20048;-81
2023/10/22 03:15:53;;;;;;;0.05;0.05;;;;;;;;;;5107960;28;20106;-80
2023/10/22 03:18:20;;;;;;;0.10;0.10;;;;;;;;;;5107727;28;20114;-80
2023/10/22 03:20:47;;;;;;;0.10;0.10;;;;;;;;;;5109170;28;20055;-80
2023/10/22 03:23:13;;;;;;;0.10;0.10;;;;;;;;;;5100263;27;20063;-81
2023/10/22 03:25:40;;;;;;;0.10;0.10;;;;;;;;;;5111010;27;20040;-81
2023/10/22 03:28:06;;;;;;;0.10;0.10;;;;;;;;;;5109193;28;20486;-81
2023/10/22 03:30:37;;;;;;;0.10;0.10;;;;;;;;;;5109499;28;20032;-80
2023/10/22 03:33:04;;;;;;;0.10;0.10;;;;;;;;;;5100141;28;20055;-81
2023/10/22 03:35:31;;;;;;;0.10;0.10;;;;;;;;;;5109780;27;20147;-82
2023/10/22 03:38:01;;;;;;;0.13;0.13;;;;;;;;;;5101657;28;20052;-82
2023/10/22 03:40:27;;;;;;;0.20;0.20;;;;;;;;;;5107171;28;20076;-80
2023/10/22 03:42:54;;;;;;;1.35;0.65;;;;;;;;;;5102397;28;20036;-82
2023/10/22 03:45:22;;;;;;;0.10;0.10;;;;;;;;;;5108685;28;20059;-82
2023/10/22 03:47:48;;;;;;;0.10;0.10;;;;;;;;;;5113524;27;20080;-82
2023/10/22 03:50:15;;;;;;;0.15;0.15;;;;;;;;;;5101748;28;20053;-83
2023/10/22 03:52:41;;;;;;;0.10;0.10;;;;;;;;;;5109091;27;20055;-81
2023/10/22 03:55:09;;;;;;;0.10;0.10;;;;;;;;;;5102739;28;20047;-82
2023/10/22 03:57:36;;;;;;;0.10;0.10;;;;;;;;;;5116711;27;20050;-82
2023/10/22 04:00:07;;;;;;;0.10;0.10;;;;;;;;;;5105585;28;20055;-83
2023/10/22 04:02:34;;;;;;;0.00;0.00;;;;;;;;;;5108301;28;20082;-83
2023/10/22 04:05:00;;;;;;;0.25;0.25;;;;;;;;;;5111588;27;20110;-83
2023/10/22 04:07:27;;;;;;;0.10;0.10;;;;;;;;;;5113788;27;20114;-81
2023/10/22 04:09:53;;;;;;;0.20;0.20;;;;;;;;;;5110693;28;20052;-83
2023/10/22 04:12:22;;;;;;;0.10;0.10;;;;;;;;;;5110448;27;20575;-80
2023/10/22 04:14:48;;;;;;;0.10;0.10;;;;;;;;;;5111681;28;20106;-82
2023/10/22 04:17:14;;;;;;;0.30;0.30;;;;;;;;;;5118256;27;20793;-82
2023/10/22 04:19:41;;;;;;;0.10;0.10;;;;;;;;;;5109665;28;20048;-82
2023/10/22 04:22:07;;;;;;;0.10;0.10;;;;;;;;;;5110698;27;20078;-82
2023/10/22 04:24:34;;;;;;;0.20;0.20;;;;;;;;;;5109683;28;20060;-83
2023/10/22 04:27:00;;;;;;;0.10;0.10;;;;;;;;;;5109947;28;20055;-83
2023/10/22 04:29:27;;;;;;;0.38;0.30;;;;;;;;;;5110889;28;20916;-82
2023/10/22 04:31:53;;;;;;;0.13;0.13;;;;;;;;;;5109647;28;20502;-82
2023/10/22 04:34:19;;;;;;;0.10;0.10;;;;;;;;;;5109724;27;20135;-83
2023/10/22 04:36:46;;;;;;;0.10;0.10;;;;;;;;;;5118263;27;20033;-82
2023/10/22 04:39:12;;;;;;;0.10;0.10;;;;;;;;;;5116969;28;20051;-82
2023/10/22 04:41:40;;;;;;;0.10;0.10;;;;;;;;;;5115226;28;20056;-80
2023/10/22 04:44:07;;;;;;;0.10;0.10;;;;;;;;;;5131371;27;20043;-83
2023/10/22 04:46:33;;;;;;;0.20;0.20;;;;;;;;;;5117972;27;20128;-81
2023/10/22 04:49:00;;;;;;;0.10;0.10;;;;;;;;;;5112592;28;20075;-83
2023/10/22 04:51:26;;;;;;;1.00;1.00;;;;;;;;;;5113524;28;20059;-81
2023/10/22 04:53:53;;;;;;;0.10;0.10;;;;;;;;;;5114710;27;20214;-83
2023/10/22 04:56:19;;;;;;;0.10;0.10;;;;;;;;;;5112121;28;20035;-83
2023/10/22 04:58:45;;;;;;;0.10;0.10;;;;;;;;;;5113154;28;20052;-83
2023/10/22 05:01:12;;;;;;;0.10;0.10;;;;;;;;;;5112009;28;20052;-81
2023/10/22 05:03:38;;;;;;;0.10;0.10;;;;;;;;;;5108667;27;20126;-82
2023/10/22 05:06:08;;;;;;;0.10;0.10;;;;;;;;;;5103681;28;20100;-81
2023/10/22 05:08:37;;;;;;;0.28;0.17;;;;;;;;;;5114597;27;20580;-80
2023/10/22 05:11:05;;;;;;;0.10;0.10;;;;;;;;;;5109849;28;20036;-83
2023/10/22 05:13:32;;;;;;;0.10;0.10;;;;;;;;;;5108093;27;20155;-82
2023/10/22 05:15:58;;;;;;;0.03;0.03;;;;;;;;;;5099880;28;20084;-83
2023/10/22 05:18:28;;;;;;;0.10;0.10;;;;;;;;;;5108778;27;20197;-82
2023/10/22 05:21:01;;;;;;;0.10;0.10;;;;;;;;;;5113191;27;20501;-82
2023/10/22 05:23:28;;;;;;;0.10;0.10;;;;;;;;;;5110447;27;20048;-82
2023/10/22 05:26:04;;;;;;;0.10;0.10;;;;;;;;;;5110746;28;20052;-83
2023/10/22 05:28:30;;;;;;;0.10;0.10;;;;;;;;;;5111103;27;20039;-83
2023/10/22 05:30:57;;;;;;;0.10;0.10;;;;;;;;;;5111282;27;20056;-80
2023/10/22 05:33:23;;;;;;;0.45;0.40;;;;;;;;;;5105727;28;20060;-81
2023/10/22 05:35:50;;;;;;;0.17;0.17;;;;;;;;;;5115607;27;20256;-82
2023/10/22 05:38:16;;;;;;;0.10;0.10;;;;;;;;;;5102669;28;20142;-81
2023/10/22 05:40:43;;;;;;;0.10;0.10;;;;;;;;;;5103688;28;20064;-82
2023/10/22 05:43:09;;;;;;;2.45;0.57;;;;;;;;;;5109627;28;20094;-82
2023/10/22 05:45:35;;;;;;;0.10;0.10;;;;;;;;;;5111526;27;20059;-82
2023/10/22 05:48:03;;;;;;;0.10;0.10;;;;;;;;;;5112460;27;20139;-83
2023/10/22 05:50:30;;;;;;;0.10;0.10;;;;;;;;;;5111730;28;20056;-82
2023/10/22 05:52:56;;;;;;;0.10;0.10;;;;;;;;;;5110278;27;20052;-82
2023/10/22 05:55:22;;;;;;;0.10;0.10;;;;;;;;;;5109042;27;20471;-82
2023/10/22 05:57:49;;;;;;;0.10;0.10;;;;;;;;;;5108403;28;20052;-83
2023/10/22 06:00:15;;;;;;;0.30;0.28;;;;;;;;;;5109160;28;20141;-83
2023/10/22 06:02:43;;;;;;;0.10;0.10;;;;;;;;;;5118925;27;20052;-81
2023/10/22 06:05:12;;;;;;;0.10;0.10;;;;;;;;;;5108691;27;20059;-83
2023/10/22 06:07:50;;;;;;;0.10;0.10;;;;;;;;;;5116024;27;20832;-82
2023/10/22 06:10:17;;;;;;;0.10;0.10;;;;;;;;;;5111369;28;20051;-81
2023/10/22 06:12:43;;;;;;;0.10;0.10;;;;;;;;;;5104010;28;20063;-80
2023/10/22 06:15:09;;;;;;;0.10;0.10;;;;;;;;;;5108906;27;20168;-82
2023/10/22 06:17:36;;;;;;;0.10;0.10;;;;;;;;;;5112450;27;20032;-82
2023/10/22 06:20:05;;;;;;;0.10;0.10;;;;;;;;;;5106041;27;20098;-80
2023/10/22 06:22:31;;;;;;;0.10;0.10;;;;;;;;;;5108160;28;20048;-81
2023/10/22 06:24:57;;;;;;;0.10;0.10;;;;;;;;;;5103759;27;20056;-82
2023/10/22 06:27:24;;;;;;;0.20;0.20;;;;;;;;;;5121557;27;20051;-82
2023/10/22 06:29:53;;;;;;;0.10;0.10;;;;;;;;;;5112477;27;20044;-82
2023/10/22 06:32:21;;;;;;;0.10;0.10;;;;;;;;;;5103952;28;20056;-82
2023/10/22 06:34:47;;;;;;;0.20;0.20;;;;;;;;;;5096909;28;20131;-80
2023/10/22 06:37:14;;;;;;;0.10;0.10;;;;;;;;;;5111448;27;20090;-82
2023/10/22 06:39:40;;;;;;;0.10;0.10;;;;;;;;;;5109929;27;20544;-82
2023/10/22 06:42:07;;;;;;;0.10;0.10;;;;;;;;;;5112088;27;20140;-82
2023/10/22 06:44:33;;;;;;;0.10;0.10;;;;;;;;;;5105794;28;20059;-82
2023/10/22 06:46:59;;;;;;;0.10;0.10;;;;;;;;;;5109135;28;20080;-82
2023/10/22 06:49:26;;;;;;;0.10;0.10;;;;;;;;;;5109497;28;20114;-82
2023/10/22 06:51:52;;;;;;;0.10;0.10;;;;;;;;;;5112140;28;20102;-80
2023/10/22 06:54:21;;;;;;;0.10;0.10;;;;;;;;;;5109773;28;20870;-82
2023/10/22 06:56:47;;;;;;;0.10;0.10;;;;;;;;;;5111324;27;20071;-81
2023/10/22 06:59:15;;;;;;;0.20;0.20;;;;;;;;;;5109657;27;20055;-82
2023/10/22 07:01:41;;;;;;;0.17;0.17;;;;;;;;;;5119620;27;20052;-81
2023/10/22 07:04:07;;;;;;;0.10;0.10;;;;;;;;;;5109914;27;20066;-80
2023/10/22 07:06:34;;;;;;;0.75;0.75;;;;;;;;;;5109398;27;20060;-80
2023/10/22 07:09:01;;;;;;;0.20;0.20;;;;;;;;;;5109222;28;20052;-82
2023/10/22 07:11:33;;;;;;;0.10;0.10;;;;;;;;;;5123058;27;20052;-82
2023/10/22 07:13:59;;;;;;;0.30;0.30;;;;;;;;;;5115966;27;20768;-80
2023/10/22 07:16:26;;;;;;;0.10;0.10;;;;;;;;;;5110495;28;20056;-81
2023/10/22 07:18:52;;;;;;;0.10;0.10;;;;;;;;;;5108925;27;20056;-81
2023/10/22 07:21:19;;;;;;;0.30;0.30;;;;;;;;;;5110224;28;20152;-81
2023/10/22 07:23:46;;;;;;;0.10;0.10;;;;;;;;;;5114562;27;20067;-81
2023/10/22 07:26:12;;;;;;;0.10;0.10;;;;;;;;;;5109139;28;20856;-80
2023/10/22 07:28:41;;;;;;;0.10;0.10;;;;;;;;;;5097872;28;20557;-81
2023/10/22 07:31:09;;;;;;;0.03;0.03;;;;;;;;;;5097360;28;20052;-82
2023/10/22 07:33:35;;;;;;;0.10;0.10;;;;;;;;;;5106899;28;20056;-81
2023/10/22 07:36:05;;;;;;;0.30;0.30;;;;;;;;;;5122605;27;20063;-81
2023/10/22 07:38:32;;;;;;;0.20;0.20;;;;;;;;;;5105136;28;20052;-81
2023/10/22 07:40:59;;;;;;;0.10;0.10;;;;;;;;;;5147730;22;20875;-77
2023/10/22 07:43:26;;;;;;;0.08;0.08;;;;;;;;;;5139898;27;20087;-78
2023/10/22 07:45:53;;;;;;;0.10;0.10;;;;;;;;;;5142317;27;20062;-76
2023/10/22 07:48:20;;;;;;;0.55;0.32;;;;;;;;;;5143716;27;20528;-77
2023/10/22 07:50:47;;;;;;;0.30;0.30;;;;;;;;;;5110907;27;20092;-78
2023/10/22 07:53:13;;;;;;;1.27;0.38;;;;;;;;;;5129895;27;20210;-77
2023/10/22 07:55:40;;;;;;;0.43;0.30;;;;;;;;;;5114069;27;20052;-78
2023/10/22 07:58:06;;;;;;;0.20;0.20;;;;;;;;;;5138532;27;20526;-78
2023/10/22 08:00:32;;;;;;;0.30;0.30;;;;;;;;;;5130303;27;20052;-77
2023/10/22 08:02:59;;;;;;;0.10;0.10;;;;;;;;;;5129901;27;20123;-77
2023/10/22 08:05:25;;;;;;;0.28;0.25;;;;;;;;;;5112097;27;20062;-78
2023/10/22 08:07:52;;;;;;;0.10;0.10;;;;;;;;;;5124066;27;20141;-77
2023/10/22 08:10:18;;;;;;;0.10;0.10;;;;;;;;;;5130914;27;20137;-77
2023/10/22 08:12:44;;;;;;;0.20;0.20;;;;;;;;;;5115105;27;20870;-77
2023/10/22 08:15:11;;;;;;;0.10;0.10;;;;;;;;;;5125549;27;20109;-77
2023/10/22 08:17:38;;;;;;;0.10;0.10;;;;;;;;;;5138861;27;20056;-77
2023/10/22 08:20:05;;;;;;;0.10;0.10;;;;;;;;;;5134041;27;20051;-77
2023/10/22 08:22:31;;;;;;;0.10;0.10;;;;;;;;;;5120642;27;20181;-77
2023/10/22 08:24:57;;;;;;;0.10;0.10;;;;;;;;;;5132122;27;20108;-77
2023/10/22 08:27:24;;;;;;;0.10;0.10;;;;;;;;;;5108639;27;20051;-77
2023/10/22 08:29:50;;;;;;;0.10;0.10;;;;;;;;;;5120993;27;20054;-77
2023/10/22 08:32:16;;;;;;;0.10;0.10;;;;;;;;;;5120393;27;20055;-77
2023/10/22 08:34:43;;;;;;;0.40;0.32;;;;;;;;;;5136181;27;20055;-78
2023/10/22 08:37:09;;;;;;;0.10;0.10;;;;;;;;;;5134511;27;20051;-77
2023/10/22 08:39:36;;;;;;;0.10;0.10;;;;;;;;;;5138409;27;20055;-77
2023/10/22 08:42:07;;;;;;;0.20;0.20;;;;;;;;;;5140592;27;20112;-77
2023/10/22 08:44:36;;;;;;;0.30;0.30;;;;;;;;;;5116339;27;20055;-76
2023/10/22 08:47:03;;;;;;;0.10;0.10;;;;;;;;;;5140414;27;20058;-77
2023/10/22 08:49:31;;;;;;;0.10;0.10;;;;;;;;;;5132169;27;20243;-79
2023/10/22 08:51:57;;;;;;;0.10;0.10;;;;;;;;;;5133344;27;20050;-79
2023/10/22 08:54:24;;;;;;;0.20;0.15;;;;;;;;;;5136449;27;20048;-78
2023/10/22 08:56:51;;;;;;;0.10;0.10;;;;;;;;;;5118146;27;20055;-78
2023/10/22 08:59:18;;;;;;;0.10;0.10;;;;;;;;;;5141136;27;20132;-78
2023/10/22 09:01:46;;;;;;;0.10;0.10;;;;;;;;;;5118250;27;20051;-78
2023/10/22 09:04:12;;;;;;;0.40;0.30;;;;;;;;;;5142514;27;20051;-78
2023/10/22 09:06:39;;;;;;;0.10;0.10;;;;;;;;;;5114212;27;20446;-78
2023/10/22 09:09:07;;;;;;;0.10;0.10;;;;;;;;;;5140038;27;20052;-78
2023/10/22 09:11:34;;;;;;;0.10;0.10;;;;;;;;;;5116135;27;20048;-78
2023/10/22 09:14:01;;;;;;;0.10;0.10;;;;;;;;;;5138963;27;20599;-80
2023/10/22 09:16:28;;;;;;;0.10;0.10;;;;;;;;;;5146916;27;20130;-80
2023/10/22 09:18:54;;;;;;;0.10;0.10;;;;;;;;;;5145201;27;20051;-81
2023/10/22 09:21:21;;;;;;;0.28;0.28;;;;;;;;;;5138854;27;20073;-80
2023/10/22 09:24:06;;;;;;;0.10;0.10;;;;;;;;;;5113680;27;20058;-80
2023/10/22 09:26:47;;;;;;;0.10;0.10;;;;;;;;;;5140094;27;20040;-79
2023/10/22 09:29:14;;;;;;;0.10;0.10;;;;;;;;;;5138706;27;20504;-80
2023/10/22 09:31:50;;;;;;;0.20;0.15;;;;;;;;;;5140721;27;20062;-81
2023/10/22 09:34:26;;;;;;;0.32;0.30;;;;;;;;;;5142310;27;20059;-81
2023/10/22 09:36:56;;;;;;;0.10;0.10;;;;;;;;;;5132854;27;20055;-80
2023/10/22 09:39:35;;;;;;;0.10;0.10;;;;;;;;;;5117634;27;20120;-81
2023/10/22 09:42:05;;;;;;;0.10;0.10;;;;;;;;;;5143576;27;20054;-80
2023/10/22 09:44:35;;;;;;;0.10;0.10;;;;;;;;;;5139650;27;20542;-81
2023/10/22 09:47:03;;;;;;;0.10;0.10;;;;;;;;;;5123802;27;20142;-80
2023/10/22 09:49:33;;;;;;;0.10;0.10;;;;;;;;;;5138205;27;20082;-79
2023/10/22 09:52:00;;;;;;;0.10;0.10;;;;;;;;;;5119722;27;20462;-82
2023/10/22 09:54:34;;;;;;;0.40;0.40;;;;;;;;;;5136401;27;20067;-81
2023/10/22 09:57:06;;;;;;;0.10;0.10;;;;;;;;;;5132961;27;20557;-82
2023/10/22 09:59:32;;;;;;;0.15;0.15;;;;;;;;;;5139093;27;20056;-81
2023/10/22 10:02:00;;;;;;;0.40;0.40;;;;;;;;;;5150345;27;21599;-81
2023/10/22 10:04:26;;;;;;;0.10;0.10;;;;;;;;;;5120344;27;20055;-81
2023/10/22 10:06:53;;;;;;;0.10;0.10;;;;;;;;;;5138843;27;20059;-83
2023/10/22 10:09:21;;;;;;;0.10;0.10;;;;;;;;;;5124113;27;20068;-82
2023/10/22 10:11:47;;;;;;;0.10;0.10;;;;;;;;;;5121999;27;20055;-81
2023/10/22 10:14:42;;;;;;;0.10;0.10;;;;;;;;;;5132671;27;20058;-80
2023/10/22 10:17:09;;;;;;;0.10;0.10;;;;;;;;;;5141356;27;20055;-81
2023/10/22 10:19:36;;;;;;;0.10;0.10;;;;;;;;;;5143569;27;20059;-80
2023/10/22 10:22:02;;;;;;;0.75;0.52;;;;;;;;;;5145191;27;20184;-81
2023/10/22 10:24:30;;;;;;;0.08;0.08;;;;;;;;;;5135593;27;20055;-81
2023/10/22 10:26:56;;;;;;;0.10;0.10;;;;;;;;;;5121476;27;20055;-81
2023/10/22 10:29:24;;;;;;;0.10;0.10;;;;;;;;;;5138659;27;20082;-80
2023/10/22 10:31:52;;;;;;;0.10;0.10;;;;;;;;;;5148436;27;20054;-79
2023/10/22 10:34:24;;;;;;;0.10;0.10;;;;;;;;;;5122748;27;20051;-81
2023/10/22 10:36:51;;;;;;;0.10;0.10;;;;;;;;;;5148258;27;20051;-86
2023/10/22 10:39:37;;;;;;;0.10;0.10;;;;;;;;;;5140122;27;20058;-81
2023/10/22 10:42:04;;;;;;;0.10;0.10;;;;;;;;;;5142071;27;20047;-81
2023/10/22 10:44:30;;;;;;;0.10;0.10;;;;;;;;;;5147205;27;20528;-82
2023/10/22 10:47:30;;;;;;;0.20;0.20;;;;;;;;;;5136990;27;20047;-81
2023/10/22 10:50:10;;;;;;;0.10;0.10;;;;;;;;;;5100796;27;20054;-81
2023/10/22 10:52:42;;;;;;;0.10;0.10;;;;;;;;;;5138177;27;20052;-81
2023/10/22 10:55:09;;;;;;;0.10;0.10;;;;;;;;;;5143261;27;20047;-80
2023/10/22 10:57:36;;;;;;;0.10;0.10;;;;;;;;;;5118982;27;20059;-81
2023/10/22 11:00:06;;;;;;;0.32;0.30;;;;;;;;;;5136091;27;20466;-81
2023/10/22 11:02:40;;;;;;;0.10;0.10;;;;;;;;;;5120635;27;20096;-81
2023/10/22 11:05:07;;;;;;;0.22;0.22;;;;;;;;;;5147631;27;20055;-85
2023/10/22 11:07:34;;;;;;;0.10;0.10;;;;;;;;;;5142885;27;20126;-81
2023/10/22 11:10:14;;;;;;;0.10;0.10;;;;;;;;;;5141888;27;20450;-83
2023/10/22 11:12:41;;;;;;;0.10;0.10;;;;;;;;;;5126580;27;20142;-83
2023/10/22 11:15:09;;;;;;;1.45;0.68;;;;;;;;;;5145081;27;20047;-82
2023/10/22 11:17:36;;;;;;;0.10;0.10;;;;;;;;;;5142085;27;20062;-81
2023/10/22 11:20:04;;;;;;;0.10;0.10;;;;;;;;;;5140580;27;20052;-81
2023/10/22 11:22:31;;;;;;;0.25;0.25;;;;;;;;;;5132214;27;20868;-80
2023/10/22 11:24:59;;;;;;;0.22;0.22;;;;;;;;;;5139777;27;20059;-81
2023/10/22 11:27:26;;;;;;;0.10;0.10;;;;;;;;;;5130772;27;20056;-82
2023/10/22 11:29:53;;;;;;;0.20;0.20;;;;;;;;;;5144159;27;20186;-80
2023/10/22 11:32:20;;;;;;;0.20;0.20;;;;;;;;;;5133976;27;20056;-79
2023/10/22 11:34:47;;;;;;;0.10;0.10;;;;;;;;;;5146614;27;20593;-81
2023/10/22 11:37:14;;;;;;;0.10;0.10;;;;;;;;;;5143673;27;20051;-84
2023/10/22 11:39:42;;;;;;;0.10;0.10;;;;;;;;;;5135089;27;20047;-82
2023/10/22 11:42:10;;;;;;;0.10;0.10;;;;;;;;;;5129494;27;20048;-81
2023/10/22 11:44:42;;;;;;;0.10;0.10;;;;;;;;;;5135938;27;20063;-80
2023/10/22 11:47:23;;;;;;;0.13;0.13;;;;;;;;;;5122334;27;20134;-82
2023/10/22 11:49:50;;;;;;;0.10;0.10;;;;;;;;;;5141288;27;20535;-78
2023/10/22 11:52:17;;;;;;;0.10;0.10;;;;;;;;;;5134932;27;20127;-82
2023/10/22 11:54:44;;;;;;;0.10;0.10;;;;;;;;;;5145723;27;20062;-79
2023/10/22 11:57:10;;;;;;;0.10;0.10;;;;;;;;;;5119661;27;20131;-80
2023/10/22 11:59:37;;;;;;;0.10;0.10;;;;;;;;;;5132744;27;20873;-79
2023/10/22 12:02:03;;;;;;;0.15;0.15;;;;;;;;;;5140521;27;20517;-82
2023/10/22 12:04:29;;;;;;;0.10;0.10;;;;;;;;;;5121327;27;20055;-82
2023/10/22 12:06:56;;;;;;;0.10;0.10;;;;;;;;;;5143296;27;20085;-79
2023/10/22 12:09:22;;;;;;;0.10;0.10;;;;;;;;;;5138913;27;20051;-81
2023/10/22 12:11:51;;;;;;;0.10;0.10;;;;;;;;;;5134508;27;20421;-82
2023/10/22 12:14:18;;;;;;;0.10;0.10;;;;;;;;;;5137404;27;20223;-81
2023/10/22 12:16:44;;;;;;;0.10;0.10;;;;;;;;;;5119762;27;20051;-82
2023/10/22 12:19:11;;;;;;;0.22;0.17;;;;;;;;;;5146024;27;20948;-81
2023/10/22 12:21:38;;;;;;;0.10;0.10;;;;;;;;;;5119552;27;20187;-81
2023/10/22 12:24:04;;;;;;;0.10;0.10;;;;;;;;;;5142100;27;20711;-81
2023/10/22 12:26:49;;;;;;;0.10;0.10;;;;;;;;;;5144693;27;20071;-82
2023/10/22 12:29:15;;;;;;;0.10;0.10;;;;;;;;;;5145329;27;20105;-81
2023/10/22 12:31:42;;;;;;;0.10;0.10;;;;;;;;;;5137366;27;20097;-81
2023/10/22 12:34:08;;;;;;;0.10;0.10;;;;;;;;;;5126591;27;20074;-80
2023/10/22 12:36:34;;;;;;;0.10;0.10;;;;;;;;;;5136358;27;20051;-79
2023/10/22 12:39:01;;;;;;;0.10;0.10;;;;;;;;;;5142075;27;20059;-81
2023/10/22 12:41:27;;;;;;;0.10;0.10;;;;;;;;;;5126880;27;20059;-82
2023/10/22 12:43:54;;;;;;;0.30;0.30;;;;;;;;;;5135084;27;20205;-81
2023/10/22 12:46:20;;;;;;;0.10;0.10;;;;;;;;;;5133963;27;20051;-82
2023/10/22 12:48:47;;;;;;;0.10;0.10;;;;;;;;;;5140304;27;20146;-82
2023/10/22 12:51:13;;;;;;;0.10;0.10;;;;;;;;;;5148218;27;20057;-80
2023/10/22 12:53:40;;;;;;;0.30;0.30;;;;;;;;;;5117122;27;20086;-81
2023/10/22 12:56:07;;;;;;;0.10;0.10;;;;;;;;;;5129429;27;20590;-81
2023/10/22 12:58:34;;;;;;;0.25;0.25;;;;;;;;;;5146989;27;20063;-79
2023/10/22 13:01:04;;;;;;;0.10;0.10;;;;;;;;;;5152045;27;20056;-81
2023/10/22 13:03:30;;;;;;;0.10;0.10;;;;;;;;;;5140774;27;20138;-79
2023/10/22 13:06:00;;;;;;;0.10;0.10;;;;;;;;;;5144372;27;20087;-79
2023/10/22 13:08:26;;;;;;;0.10;0.10;;;;;;;;;;5140913;27;20513;-80
2023/10/22 13:10:53;;;;;;;0.32;0.30;;;;;;;;;;5135628;27;20698;-79
2023/10/22 13:13:19;;;;;;;0.10;0.10;;;;;;;;;;5140346;27;20136;-78
2023/10/22 13:15:46;;;;;;;0.10;0.10;;;;;;;;;;5142005;27;20078;-78
2023/10/22 13:18:12;;;;;;;0.20;0.20;;;;;;;;;;5146482;27;20135;-78
2023/10/22 13:20:38;;;;;;;0.10;0.10;;;;;;;;;;5139179;27;20083;-79
2023/10/22 13:23:05;;;;;;;0.10;0.10;;;;;;;;;;5139802;27;20059;-79
2023/10/22 13:25:32;;;;;;;0.10;0.10;;;;;;;;;;5144414;27;20086;-79
2023/10/22 13:27:58;;;;;;;0.10;0.10;;;;;;;;;;5144621;27;20059;-78
2023/10/22 13:30:26;;;;;;;0.10;0.10;;;;;;;;;;5118678;27;20573;-80
2023/10/22 13:32:54;;;;;;;0.13;0.13;;;;;;;;;;5133973;27;20100;-79
2023/10/22 13:35:21;;;;;;;0.10;0.10;;;;;;;;;;5141766;27;20047;-77
2023/10/22 13:37:47;;;;;;;0.15;0.15;;;;;;;;;;5144288;27;20055;-78
2023/10/22 13:40:14;;;;;;;0.90;0.38;;;;;;;;;;5136781;27;20125;-78
2023/10/22 13:42:40;;;;;;;0.10;0.10;;;;;;;;;;5133100;27;20105;-77
2023/10/22 13:45:07;;;;;;;0.45;0.32;;;;;;;;;;5137566;27;20086;-79
2023/10/22 13:47:35;;;;;;;0.10;0.10;;;;;;;;;;5139302;27;20116;-77
2023/10/22 13:50:02;;;;;;;0.10;0.10;;;;;;;;;;5137364;27;20054;-78
2023/10/22 13:52:29;;;;;;;0.10;0.10;;;;;;;;;;5137687;27;20134;-77
2023/10/22 13:54:56;;;;;;;0.10;0.10;;;;;;;;;;5120054;27;22432;-77
2023/10/22 13:57:22;;;;;;;0.10;0.10;;;;;;;;;;5134909;27;20052;-77
2023/10/22 13:59:49;;;;;;;0.10;0.10;;;;;;;;;;5138467;27;20051;-79
2023/10/22 14:02:15;;;;;;;0.10;0.10;;;;;;;;;;5136255;27;20133;-78
2023/10/22 14:04:42;;;;;;;0.10;0.10;;;;;;;;;;5134548;27;20047;-79
2023/10/22 14:07:08;;;;;;;0.10;0.10;;;;;;;;;;5132711;27;20055;-77
2023/10/22 14:09:35;;;;;;;0.10;0.10;;;;;;;;;;5139473;27;20055;-78
2023/10/22 14:12:01;;;;;;;0.10;0.10;;;;;;;;;;5137683;27;20960;-78
2023/10/22 14:14:28;;;;;;;0.15;0.15;;;;;;;;;;5111501;27;20478;-78
2023/10/22 14:16:54;;;;;;;0.10;0.10;;;;;;;;;;5118624;27;20055;-78
2023/10/22 14:19:21;;;;;;;0.10;0.10;;;;;;;;;;5133115;27;20162;-78
2023/10/22 14:21:48;;;;;;;0.13;0.13;;;;;;;;;;5140482;27;20058;-77
2023/10/22 14:24:14;;;;;;;0.10;0.10;;;;;;;;;;5135139;27;20051;-79
2023/10/22 14:26:40;;;;;;;0.10;0.10;;;;;;;;;;5127306;27;20047;-77
2023/10/22 14:29:07;;;;;;;0.10;0.10;;;;;;;;;;5141018;27;20047;-79
2023/10/22 14:31:33;;;;;;;0.10;0.10;;;;;;;;;;5134709;27;20055;-78
2023/10/22 14:33:59;;;;;;;0.15;0.15;;;;;;;;;;5140270;27;20059;-78
2023/10/22 14:36:26;;;;;;;0.20;0.20;;;;;;;;;;5130585;27;20051;-78
2023/10/22 14:38:52;;;;;;;0.10;0.10;;;;;;;;;;5118632;27;20101;-78
2023/10/22 14:41:19;;;;;;;0.10;0.10;;;;;;;;;;5120774;27;20058;-78
2023/10/22 14:43:45;;;;;;;0.10;0.10;;;;;;;;;;5129875;27;20079;-77